Alma, Georgia
Current Conditions -  °F | °C
As of 6:21 AM on Sunday 23 Nov 2014 (Local Time) from KAMG Reporting Station
Heavy Rain Heavy Rain  
Wind Chill: 16°   Ceiling: 400
Heat Index: 16°   Visibility: 1.7mi
Dew Point: 15°   Wind: 6mph
Humidity: 96%   Direction: 50°NE
Pressure: 30.02"   Gusts: NA
Location:  31.54°N, 82.46°W
Report Text: KAMG 231121Z AUTO 05005KT 1 3/4SM +RA BR BKN004 OVC014 16/15 A3002 RMK AO2 P0018 T01560150
Loading
Personal Weather Stations






























Interactive Weather Map New forecast layout! Learn more

10-Day Weather Forecast

Advertisements
Track Severe Weather on mobile